sensor_id;sensor_type;location;lat;lon;timestamp;temperature;humidity
50758;DHT22;36732;47.980;11.652;2022-09-03T00:03:37;19.00;52.40
50758;DHT22;36732;47.980;11.652;2022-09-03T00:08:47;19.00;52.50
50758;DHT22;36732;47.980;11.652;2022-09-03T00:11:30;19.00;52.70
50758;DHT22;36732;47.980;11.652;2022-09-03T00:14:46;19.00;52.50
50758;DHT22;36732;47.980;11.652;2022-09-03T00:17:26;19.00;52.80
50758;DHT22;36732;47.980;11.652;2022-09-03T00:20:02;19.00;52.80
50758;DHT22;36732;47.980;11.652;2022-09-03T00:22:38;18.90;52.90
50758;DHT22;36732;47.980;11.652;2022-09-03T00:25:09;18.90;53.00
50758;DHT22;36732;47.980;11.652;2022-09-03T00:27:40;18.90;53.00
50758;DHT22;36732;47.980;11.652;2022-09-03T00:30:15;18.90;52.90
50758;DHT22;36732;47.980;11.652;2022-09-03T00:32:44;18.90;53.30
50758;DHT22;36732;47.980;11.652;2022-09-03T00:35:26;18.90;53.20
50758;DHT22;36732;47.980;11.652;2022-09-03T00:37:56;18.90;53.40
50758;DHT22;36732;47.980;11.652;2022-09-03T00:40:44;18.90;53.10
50758;DHT22;36732;47.980;11.652;2022-09-03T00:43:43;18.90;53.50
50758;DHT22;36732;47.980;11.652;2022-09-03T00:46:21;18.90;53.40
50758;DHT22;36732;47.980;11.652;2022-09-03T01:04:31;18.80;53.40
50758;DHT22;36732;47.980;11.652;2022-09-03T01:10:08;18.80;53.30
50758;DHT22;36732;47.980;11.652;2022-09-03T01:13:00;18.80;53.40
50758;DHT22;36732;47.980;11.652;2022-09-03T01:15:55;18.80;53.00
50758;DHT22;36732;47.980;11.652;2022-09-03T01:24:45;18.80;53.40
50758;DHT22;36732;47.980;11.652;2022-09-03T01:30:44;18.80;53.70
50758;DHT22;36732;47.980;11.652;2022-09-03T01:39:12;18.80;53.70
50758;DHT22;36732;47.980;11.652;2022-09-03T01:50:35;18.80;53.70
50758;DHT22;36732;47.980;11.652;2022-09-03T01:56:09;18.80;53.70
50758;DHT22;36732;47.980;11.652;2022-09-03T01:59:47;18.80;53.90
50758;DHT22;36732;47.980;11.652;2022-09-03T02:02:02;18.80;53.90
50758;DHT22;36732;47.980;11.652;2022-09-03T02:04:31;18.80;53.90
50758;DHT22;36732;47.980;11.652;2022-09-03T02:06:59;18.80;53.70
50758;DHT22;36732;47.980;11.652;2022-09-03T02:09:26;18.80;53.80
50758;DHT22;36732;47.980;11.652;2022-09-03T02:11:55;18.80;53.80
50758;DHT22;36732;47.980;11.652;2022-09-03T02:14:31;18.80;53.80
50758;DHT22;36732;47.980;11.652;2022-09-03T02:16:59;18.80;53.60
50758;DHT22;36732;47.980;11.652;2022-09-03T02:19:27;18.80;53.70
50758;DHT22;36732;47.980;11.652;2022-09-03T02:21:56;18.80;53.70
50758;DHT22;36732;47.980;11.652;2022-09-03T02:24:23;18.80;53.70
50758;DHT22;36732;47.980;11.652;2022-09-03T02:26:49;18.80;54.40
50758;DHT22;36732;47.980;11.652;2022-09-03T02:29:15;18.80;53.80
50758;DHT22;36732;47.980;11.652;2022-09-03T02:31:42;18.80;53.80
50758;DHT22;36732;47.980;11.652;2022-09-03T02:34:08;18.80;53.70
50758;DHT22;36732;47.980;11.652;2022-09-03T02:36:37;18.80;53.70
50758;DHT22;36732;47.980;11.652;2022-09-03T02:39:05;18.70;53.50
50758;DHT22;36732;47.980;11.652;2022-09-03T02:41:32;18.70;53.60
50758;DHT22;36732;47.980;11.652;2022-09-03T02:44:19;18.70;53.40
50758;DHT22;36732;47.980;11.652;2022-09-03T02:46:53;18.70;53.40
50758;DHT22;36732;47.980;11.652;2022-09-03T02:49:22;18.80;53.50
50758;DHT22;36732;47.980;11.652;2022-09-03T02:51:47;18.80;53.20
50758;DHT22;36732;47.980;11.652;2022-09-03T02:54:13;18.80;53.30
50758;DHT22;36732;47.980;11.652;2022-09-03T02:56:40;18.80;53.30
50758;DHT22;36732;47.980;11.652;2022-09-03T02:59:07;18.70;53.40
50758;DHT22;36732;47.980;11.652;2022-09-03T03:01:34;18.70;53.40
50758;DHT22;36732;47.980;11.652;2022-09-03T03:04:01;18.70;53.50
50758;DHT22;36732;47.980;11.652;2022-09-03T03:06:27;18.70;53.50
50758;DHT22;36732;47.980;11.652;2022-09-03T03:08:53;18.70;53.50
50758;DHT22;36732;47.980;11.652;2022-09-03T03:11:20;18.70;53.50
50758;DHT22;36732;47.980;11.652;2022-09-03T03:13:47;18.70;53.50
50758;DHT22;36732;47.980;11.652;2022-09-03T03:16:14;18.60;53.50
50758;DHT22;36732;47.980;11.652;2022-09-03T03:18:41;18.60;53.60
50758;DHT22;36732;47.980;11.652;2022-09-03T03:21:12;18.60;53.60
50758;DHT22;36732;47.980;11.652;2022-09-03T03:23:40;18.60;53.70
50758;DHT22;36732;47.980;11.652;2022-09-03T03:26:08;18.60;53.60
50758;DHT22;36732;47.980;11.652;2022-09-03T03:28:35;18.60;53.70
50758;DHT22;36732;47.980;11.652;2022-09-03T03:31:10;18.60;53.50
50758;DHT22;36732;47.980;11.652;2022-09-03T03:33:37;18.50;53.60
50758;DHT22;36732;47.980;11.652;2022-09-03T03:36:06;18.50;53.60
50758;DHT22;36732;47.980;11.652;2022-09-03T03:38:34;18.50;53.60
50758;DHT22;36732;47.980;11.652;2022-09-03T03:41:06;18.50;53.60
50758;DHT22;36732;47.980;11.652;2022-09-03T03:43:32;18.50;53.60
50758;DHT22;36732;47.980;11.652;2022-09-03T03:45:58;18.50;53.60
50758;DHT22;36732;47.980;11.652;2022-09-03T03:48:25;18.40;53.60
50758;DHT22;36732;47.980;11.652;2022-09-03T03:50:51;18.40;53.60
50758;DHT22;36732;47.980;11.652;2022-09-03T03:53:18;18.40;53.50
50758;DHT22;36732;47.980;11.652;2022-09-03T03:55:54;18.40;53.60
50758;DHT22;36732;47.980;11.652;2022-09-03T03:58:23;18.40;53.80
50758;DHT22;36732;47.980;11.652;2022-09-03T04:00:50;18.30;53.70
50758;DHT22;36732;47.980;11.652;2022-09-03T04:03:17;18.30;53.70
50758;DHT22;36732;47.980;11.652;2022-09-03T04:05:43;18.30;53.70
50758;DHT22;36732;47.980;11.652;2022-09-03T04:08:19;18.30;53.80
50758;DHT22;36732;47.980;11.652;2022-09-03T04:10:44;18.30;53.70
50758;DHT22;36732;47.980;11.652;2022-09-03T04:13:11;18.30;53.80
50758;DHT22;36732;47.980;11.652;2022-09-03T04:15:36;18.30;53.90
50758;DHT22;36732;47.980;11.652;2022-09-03T04:18:02;18.30;53.90
50758;DHT22;36732;47.980;11.652;2022-09-03T04:20:28;18.30;53.90
50758;DHT22;36732;47.980;11.652;2022-09-03T04:22:58;18.20;53.90
50758;DHT22;36732;47.980;11.652;2022-09-03T04:25:25;18.20;53.90
50758;DHT22;36732;47.980;11.652;2022-09-03T04:27:51;18.20;53.90
50758;DHT22;36732;47.980;11.652;2022-09-03T04:30:17;18.20;53.90
50758;DHT22;36732;47.980;11.652;2022-09-03T04:32:43;18.20;54.10
50758;DHT22;36732;47.980;11.652;2022-09-03T04:35:22;18.20;54.00
50758;DHT22;36732;47.980;11.652;2022-09-03T04:37:48;18.20;54.00
50758;DHT22;36732;47.980;11.652;2022-09-03T04:40:14;18.20;54.00
50758;DHT22;36732;47.980;11.652;2022-09-03T04:42:40;18.10;54.00
50758;DHT22;36732;47.980;11.652;2022-09-03T04:45:06;18.10;54.00
50758;DHT22;36732;47.980;11.652;2022-09-03T04:47:33;18.10;54.10
50758;DHT22;36732;47.980;11.652;2022-09-03T04:50:02;18.10;54.10
50758;DHT22;36732;47.980;11.652;2022-09-03T04:52:29;18.10;54.20
50758;DHT22;36732;47.980;11.652;2022-09-03T04:54:56;18.10;54.20
50758;DHT22;36732;47.980;11.652;2022-09-03T04:57:22;18.10;54.20
50758;DHT22;36732;47.980;11.652;2022-09-03T04:59:48;18.10;54.30
50758;DHT22;36732;47.980;11.652;2022-09-03T05:02:14;18.10;54.30
50758;DHT22;36732;47.980;11.652;2022-09-03T05:04:40;18.10;54.40
50758;DHT22;36732;47.980;11.652;2022-09-03T05:07:07;18.10;54.70
50758;DHT22;36732;47.980;11.652;2022-09-03T05:09:33;18.10;54.70
50758;DHT22;36732;47.980;11.652;2022-09-03T05:11:59;18.10;54.80
50758;DHT22;36732;47.980;11.652;2022-09-03T05:14:24;18.10;55.10
50758;DHT22;36732;47.980;11.652;2022-09-03T05:16:50;18.10;55.20
50758;DHT22;36732;47.980;11.652;2022-09-03T05:19:16;18.10;55.30
50758;DHT22;36732;47.980;11.652;2022-09-03T05:21:42;18.20;55.30
50758;DHT22;36732;47.980;11.652;2022-09-03T05:24:08;18.20;55.50
50758;DHT22;36732;47.980;11.652;2022-09-03T05:26:37;18.20;55.50
50758;DHT22;36732;47.980;11.652;2022-09-03T05:29:05;18.20;55.60
50758;DHT22;36732;47.980;11.652;2022-09-03T05:31:36;18.30;55.80
50758;DHT22;36732;47.980;11.652;2022-09-03T05:34:06;18.30;55.90
50758;DHT22;36732;47.980;11.652;2022-09-03T05:36:34;18.30;55.80
50758;DHT22;36732;47.980;11.652;2022-09-03T05:39:00;18.30;55.90
50758;DHT22;36732;47.980;11.652;2022-09-03T05:41:27;18.40;56.00
50758;DHT22;36732;47.980;11.652;2022-09-03T05:43:54;18.40;56.20
50758;DHT22;36732;47.980;11.652;2022-09-03T05:46:22;18.40;56.30
50758;DHT22;36732;47.980;11.652;2022-09-03T05:48:56;18.40;56.40
50758;DHT22;36732;47.980;11.652;2022-09-03T05:51:24;18.50;56.70
50758;DHT22;36732;47.980;11.652;2022-09-03T05:53:50;18.50;56.90
50758;DHT22;36732;47.980;11.652;2022-09-03T05:56:19;18.50;56.90
50758;DHT22;36732;47.980;11.652;2022-09-03T05:58:51;18.50;57.10
50758;DHT22;36732;47.980;11.652;2022-09-03T06:01:23;18.60;57.20
50758;DHT22;36732;47.980;11.652;2022-09-03T06:04:04;18.60;57.10
50758;DHT22;36732;47.980;11.652;2022-09-03T06:06:33;18.60;57.10
50758;DHT22;36732;47.980;11.652;2022-09-03T06:09:05;18.60;56.80
50758;DHT22;36732;47.980;11.652;2022-09-03T06:11:42;18.70;57.00
50758;DHT22;36732;47.980;11.652;2022-09-03T06:14:10;18.70;57.00
50758;DHT22;36732;47.980;11.652;2022-09-03T06:16:39;18.70;57.80
50758;DHT22;36732;47.980;11.652;2022-09-03T06:19:06;18.80;57.20
50758;DHT22;36732;47.980;11.652;2022-09-03T06:21:36;18.80;57.10
50758;DHT22;36732;47.980;11.652;2022-09-03T06:24:17;18.80;57.20
50758;DHT22;36732;47.980;11.652;2022-09-03T06:26:44;18.80;57.20
50758;DHT22;36732;47.980;11.652;2022-09-03T06:29:11;18.90;57.40
50758;DHT22;36732;47.980;11.652;2022-09-03T06:31:37;18.90;57.50
50758;DHT22;36732;47.980;11.652;2022-09-03T06:34:04;18.90;57.60
50758;DHT22;36732;47.980;11.652;2022-09-03T06:36:30;18.90;57.80
50758;DHT22;36732;47.980;11.652;2022-09-03T06:38:56;19.00;57.60
50758;DHT22;36732;47.980;11.652;2022-09-03T06:41:28;19.00;57.70
50758;DHT22;36732;47.980;11.652;2022-09-03T06:44:04;19.00;58.00
50758;DHT22;36732;47.980;11.652;2022-09-03T06:46:33;19.00;58.20
50758;DHT22;36732;47.980;11.652;2022-09-03T06:49:00;19.10;57.80
50758;DHT22;36732;47.980;11.652;2022-09-03T06:51:27;19.10;57.60
50758;DHT22;36732;47.980;11.652;2022-09-03T06:54:02;19.10;57.80
50758;DHT22;36732;47.980;11.652;2022-09-03T06:56:33;19.20;57.80
50758;DHT22;36732;47.980;11.652;2022-09-03T06:59:04;19.10;58.00
50758;DHT22;36732;47.980;11.652;2022-09-03T07:01:32;19.20;58.30
50758;DHT22;36732;47.980;11.652;2022-09-03T07:04:01;19.20;58.00
50758;DHT22;36732;47.980;11.652;2022-09-03T07:06:29;19.30;58.30
50758;DHT22;36732;47.980;11.652;2022-09-03T07:08:56;19.30;58.20
50758;DHT22;36732;47.980;11.652;2022-09-03T07:11:26;19.30;58.00
50758;DHT22;36732;47.980;11.652;2022-09-03T07:13:54;19.30;58.00
50758;DHT22;36732;47.980;11.652;2022-09-03T07:16:25;19.30;58.20
50758;DHT22;36732;47.980;11.652;2022-09-03T07:18:53;19.40;58.10
50758;DHT22;36732;47.980;11.652;2022-09-03T07:21:27;19.40;58.00
50758;DHT22;36732;47.980;11.652;2022-09-03T07:23:54;19.40;58.30
50758;DHT22;36732;47.980;11.652;2022-09-03T07:26:26;19.40;58.20
50758;DHT22;36732;47.980;11.652;2022-09-03T07:28:54;19.40;58.40
50758;DHT22;36732;47.980;11.652;2022-09-03T07:31:40;19.50;58.30
50758;DHT22;36732;47.980;11.652;2022-09-03T07:34:09;19.50;58.50
50758;DHT22;36732;47.980;11.652;2022-09-03T07:36:49;19.50;58.50
50758;DHT22;36732;47.980;11.652;2022-09-03T07:39:16;19.50;58.90
50758;DHT22;36732;47.980;11.652;2022-09-03T07:41:42;19.60;58.80
50758;DHT22;36732;47.980;11.652;2022-09-03T07:44:14;19.50;58.80
50758;DHT22;36732;47.980;11.652;2022-09-03T07:46:43;19.60;59.10
50758;DHT22;36732;47.980;11.652;2022-09-03T07:49:11;19.60;59.10
50758;DHT22;36732;47.980;11.652;2022-09-03T07:51:37;19.60;59.10
50758;DHT22;36732;47.980;11.652;2022-09-03T07:54:06;19.60;59.10
50758;DHT22;36732;47.980;11.652;2022-09-03T07:56:34;19.60;59.30
50758;DHT22;36732;47.980;11.652;2022-09-03T07:59:01;19.70;59.20
50758;DHT22;36732;47.980;11.652;2022-09-03T08:01:29;19.70;59.30
50758;DHT22;36732;47.980;11.652;2022-09-03T08:03:57;19.70;59.40
50758;DHT22;36732;47.980;11.652;2022-09-03T08:06:25;19.70;59.50
50758;DHT22;36732;47.980;11.652;2022-09-03T08:08:56;19.70;59.60
50758;DHT22;36732;47.980;11.652;2022-09-03T08:11:25;19.70;59.70
50758;DHT22;36732;47.980;11.652;2022-09-03T08:13:59;19.80;59.90
50758;DHT22;36732;47.980;11.652;2022-09-03T08:16:32;19.80;60.20
50758;DHT22;36732;47.980;11.652;2022-09-03T08:19:00;19.80;60.00
50758;DHT22;36732;47.980;11.652;2022-09-03T08:21:26;19.80;59.70
50758;DHT22;36732;47.980;11.652;2022-09-03T08:23:54;19.80;60.00
50758;DHT22;36732;47.980;11.652;2022-09-03T08:26:30;19.90;60.10
50758;DHT22;36732;47.980;11.652;2022-09-03T08:28:58;19.90;60.00
50758;DHT22;36732;47.980;11.652;2022-09-03T08:31:24;19.90;60.10
50758;DHT22;36732;47.980;11.652;2022-09-03T08:33:53;19.90;60.00
50758;DHT22;36732;47.980;11.652;2022-09-03T08:36:22;19.90;60.30
50758;DHT22;36732;47.980;11.652;2022-09-03T08:38:56;20.00;60.30
50758;DHT22;36732;47.980;11.652;2022-09-03T08:42:01;20.00;60.40
50758;DHT22;36732;47.980;11.652;2022-09-03T08:44:54;20.00;60.60
50758;DHT22;36732;47.980;11.652;2022-09-03T08:47:29;20.00;60.20
50758;DHT22;36732;47.980;11.652;2022-09-03T08:50:28;20.00;60.60
50758;DHT22;36732;47.980;11.652;2022-09-03T08:53:29;20.00;60.90
50758;DHT22;36732;47.980;11.652;2022-09-03T08:56:25;20.10;60.80
50758;DHT22;36732;47.980;11.652;2022-09-03T08:58:53;20.10;60.90
50758;DHT22;36732;47.980;11.652;2022-09-03T09:01:51;20.10;60.90
50758;DHT22;36732;47.980;11.652;2022-09-03T09:07:51;20.10;61.20
50758;DHT22;36732;47.980;11.652;2022-09-03T09:13:24;20.20;61.70
50758;DHT22;36732;47.980;11.652;2022-09-03T09:16:18;20.20;61.50
50758;DHT22;36732;47.980;11.652;2022-09-03T09:22:00;20.30;61.80
50758;DHT22;36732;47.980;11.652;2022-09-03T09:24:39;20.30;61.70
50758;DHT22;36732;47.980;11.652;2022-09-03T09:27:07;20.40;61.80
50758;DHT22;36732;47.980;11.652;2022-09-03T09:29:37;20.40;61.40
50758;DHT22;36732;47.980;11.652;2022-09-03T09:32:04;20.40;61.60
50758;DHT22;36732;47.980;11.652;2022-09-03T09:34:34;20.40;61.30
50758;DHT22;36732;47.980;11.652;2022-09-03T09:37:03;20.40;61.40
50758;DHT22;36732;47.980;11.652;2022-09-03T09:39:30;20.50;61.50
50758;DHT22;36732;47.980;11.652;2022-09-03T09:42:04;20.50;61.40
50758;DHT22;36732;47.980;11.652;2022-09-03T09:44:37;20.50;61.70
50758;DHT22;36732;47.980;11.652;2022-09-03T09:47:15;20.60;61.70
50758;DHT22;36732;47.980;11.652;2022-09-03T09:50:01;20.60;62.00
50758;DHT22;36732;47.980;11.652;2022-09-03T09:52:28;20.60;61.90
50758;DHT22;36732;47.980;11.652;2022-09-03T09:55:07;20.70;61.40
50758;DHT22;36732;47.980;11.652;2022-09-03T09:57:43;20.70;61.20
50758;DHT22;36732;47.980;11.652;2022-09-03T10:00:15;20.70;61.10
50758;DHT22;36732;47.980;11.652;2022-09-03T10:02:50;20.80;61.30
50758;DHT22;36732;47.980;11.652;2022-09-03T10:10:26;20.90;60.80
50758;DHT22;36732;47.980;11.652;2022-09-03T10:13:15;20.90;60.70
50758;DHT22;36732;47.980;11.652;2022-09-03T10:16:00;21.00;60.50
50758;DHT22;36732;47.980;11.652;2022-09-03T10:18:42;21.10;60.50
50758;DHT22;36732;47.980;11.652;2022-09-03T10:21:29;21.10;60.20
50758;DHT22;36732;47.980;11.652;2022-09-03T10:26:41;21.20;60.00
50758;DHT22;36732;47.980;11.652;2022-09-03T10:29:09;21.20;60.00
50758;DHT22;36732;47.980;11.652;2022-09-03T10:32:02;21.30;59.90
50758;DHT22;36732;47.980;11.652;2022-09-03T10:44:07;21.50;59.00
50758;DHT22;36732;47.980;11.652;2022-09-03T10:47:16;21.50;59.10
50758;DHT22;36732;47.980;11.652;2022-09-03T10:55:23;21.60;58.70
50758;DHT22;36732;47.980;11.652;2022-09-03T10:58:07;21.70;58.50
50758;DHT22;36732;47.980;11.652;2022-09-03T11:00:51;21.80;58.50
50758;DHT22;36732;47.980;11.652;2022-09-03T11:03:58;21.80;58.60
50758;DHT22;36732;47.980;11.652;2022-09-03T11:07:07;21.90;58.00
50758;DHT22;36732;47.980;11.652;2022-09-03T11:09:38;21.90;58.20
50758;DHT22;36732;47.980;11.652;2022-09-03T11:12:18;22.00;58.50
50758;DHT22;36732;47.980;11.652;2022-09-03T11:15:05;22.00;58.20
50758;DHT22;36732;47.980;11.652;2022-09-03T11:17:39;22.10;57.70
50758;DHT22;36732;47.980;11.652;2022-09-03T11:20:25;22.10;58.10
50758;DHT22;36732;47.980;11.652;2022-09-03T11:22:54;22.20;57.60
50758;DHT22;36732;47.980;11.652;2022-09-03T11:25:27;22.30;57.50
50758;DHT22;36732;47.980;11.652;2022-09-03T11:28:36;22.30;57.50
50758;DHT22;36732;47.980;11.652;2022-09-03T11:34:05;22.40;56.00
50758;DHT22;36732;47.980;11.652;2022-09-03T11:36:36;22.50;56.50
50758;DHT22;36732;47.980;11.652;2022-09-03T11:39:21;22.50;56.80
50758;DHT22;36732;47.980;11.652;2022-09-03T11:42:10;22.50;56.40
50758;DHT22;36732;47.980;11.652;2022-09-03T11:44:39;22.60;56.80
50758;DHT22;36732;47.980;11.652;2022-09-03T11:47:37;22.60;57.00
50758;DHT22;36732;47.980;11.652;2022-09-03T11:50:15;22.60;56.90
50758;DHT22;36732;47.980;11.652;2022-09-03T11:52:46;22.70;56.60
50758;DHT22;36732;47.980;11.652;2022-09-03T11:55:30;22.70;56.60
50758;DHT22;36732;47.980;11.652;2022-09-03T11:58:24;22.70;56.50
50758;DHT22;36732;47.980;11.652;2022-09-03T12:00:55;22.80;56.60
50758;DHT22;36732;47.980;11.652;2022-09-03T12:03:52;22.80;56.40
50758;DHT22;36732;47.980;11.652;2022-09-03T12:10:08;22.90;56.20
50758;DHT22;36732;47.980;11.652;2022-09-03T12:18:10;23.00;55.90
50758;DHT22;36732;47.980;11.652;2022-09-03T12:23:45;23.00;55.30
50758;DHT22;36732;47.980;11.652;2022-09-03T12:26:18;23.00;55.00
50758;DHT22;36732;47.980;11.652;2022-09-03T12:28:48;23.00;54.50
50758;DHT22;36732;47.980;11.652;2022-09-03T12:31:26;23.10;54.90
50758;DHT22;36732;47.980;11.652;2022-09-03T12:33:58;23.10;54.70
50758;DHT22;36732;47.980;11.652;2022-09-03T12:36:47;23.10;55.00
50758;DHT22;36732;47.980;11.652;2022-09-03T12:39:18;23.10;54.40
50758;DHT22;36732;47.980;11.652;2022-09-03T12:44:37;23.20;54.70
50758;DHT22;36732;47.980;11.652;2022-09-03T12:49:43;23.20;54.20
50758;DHT22;36732;47.980;11.652;2022-09-03T12:52:24;23.30;54.10
50758;DHT22;36732;47.980;11.652;2022-09-03T12:55:06;23.30;54.10
50758;DHT22;36732;47.980;11.652;2022-09-03T12:58:11;23.30;54.10
50758;DHT22;36732;47.980;11.652;2022-09-03T13:01:18;23.30;54.00
50758;DHT22;36732;47.980;11.652;2022-09-03T13:09:20;23.40;53.00
50758;DHT22;36732;47.980;11.652;2022-09-03T13:11:48;23.40;52.40
50758;DHT22;36732;47.980;11.652;2022-09-03T13:14:16;23.40;52.80
50758;DHT22;36732;47.980;11.652;2022-09-03T13:16:46;23.50;52.80
50758;DHT22;36732;47.980;11.652;2022-09-03T13:19:49;23.50;52.80
50758;DHT22;36732;47.980;11.652;2022-09-03T13:25:29;23.50;52.60
50758;DHT22;36732;47.980;11.652;2022-09-03T13:33:31;23.60;52.60
50758;DHT22;36732;47.980;11.652;2022-09-03T13:38:49;23.60;53.10
50758;DHT22;36732;47.980;11.652;2022-09-03T13:41:42;23.60;52.40
50758;DHT22;36732;47.980;11.652;2022-09-03T13:44:31;23.70;52.80
50758;DHT22;36732;47.980;11.652;2022-09-03T13:47:22;23.70;52.10
50758;DHT22;36732;47.980;11.652;2022-09-03T13:50:18;23.70;52.50
50758;DHT22;36732;47.980;11.652;2022-09-03T13:55:43;23.80;53.10
50758;DHT22;36732;47.980;11.652;2022-09-03T13:58:27;23.80;53.00
50758;DHT22;36732;47.980;11.652;2022-09-03T14:06:25;23.80;53.00
50758;DHT22;36732;47.980;11.652;2022-09-03T14:09:26;23.80;52.80
50758;DHT22;36732;47.980;11.652;2022-09-03T14:15:25;23.80;52.90
50758;DHT22;36732;47.980;11.652;2022-09-03T14:21:22;23.80;53.40
50758;DHT22;36732;47.980;11.652;2022-09-03T14:24:06;23.80;53.90
50758;DHT22;36732;47.980;11.652;2022-09-03T14:26:47;23.80;53.70
50758;DHT22;36732;47.980;11.652;2022-09-03T14:29:16;23.70;53.70
50758;DHT22;36732;47.980;11.652;2022-09-03T14:32:04;23.70;53.90
50758;DHT22;36732;47.980;11.652;2022-09-03T14:41:17;23.70;54.60
50758;DHT22;36732;47.980;11.652;2022-09-03T14:49:44;23.50;54.90
50758;DHT22;36732;47.980;11.652;2022-09-03T14:55:24;23.40;54.60
50758;DHT22;36732;47.980;11.652;2022-09-03T14:58:58;23.30;55.30
50758;DHT22;36732;47.980;11.652;2022-09-03T15:01:33;23.10;55.40
50758;DHT22;36732;47.980;11.652;2022-09-03T15:10:01;22.90;55.70
50758;DHT22;36732;47.980;11.652;2022-09-03T15:15:16;22.70;56.10
50758;DHT22;36732;47.980;11.652;2022-09-03T15:29:55;22.20;57.50
50758;DHT22;36732;47.980;11.652;2022-09-03T15:38:43;22.10;58.30
50758;DHT22;36732;47.980;11.652;2022-09-03T15:43:49;22.00;58.80
50758;DHT22;36732;47.980;11.652;2022-09-03T15:52:41;21.80;59.30
50758;DHT22;36732;47.980;11.652;2022-09-03T15:58:30;21.80;59.00
50758;DHT22;36732;47.980;11.652;2022-09-03T16:01:10;21.80;59.50
50758;DHT22;36732;47.980;11.652;2022-09-03T16:06:46;21.70;59.70
50758;DHT22;36732;47.980;11.652;2022-09-03T16:15:40;21.70;59.70
50758;DHT22;36732;47.980;11.652;2022-09-03T16:18:37;21.60;60.20
50758;DHT22;36732;47.980;11.652;2022-09-03T16:24:17;21.60;60.70
50758;DHT22;36732;47.980;11.652;2022-09-03T16:29:27;21.60;60.50
50758;DHT22;36732;47.980;11.652;2022-09-03T16:32:57;21.50;61.10
50758;DHT22;36732;47.980;11.652;2022-09-03T16:41:29;21.60;61.70
50758;DHT22;36732;47.980;11.652;2022-09-03T16:44:12;21.60;60.80
50758;DHT22;36732;47.980;11.652;2022-09-03T16:47:04;21.60;61.40
50758;DHT22;36732;47.980;11.652;2022-09-03T16:49:54;21.60;61.20
50758;DHT22;36732;47.980;11.652;2022-09-03T16:53:07;21.70;61.10
50758;DHT22;36732;47.980;11.652;2022-09-03T16:55:45;21.60;61.10
50758;DHT22;36732;47.980;11.652;2022-09-03T17:01:21;21.70;60.70
50758;DHT22;36732;47.980;11.652;2022-09-03T17:16:18;21.70;60.20
50758;DHT22;36732;47.980;11.652;2022-09-03T17:19:03;21.60;60.20
50758;DHT22;36732;47.980;11.652;2022-09-03T17:21:42;21.60;60.40
50758;DHT22;36732;47.980;11.652;2022-09-03T17:24:19;21.60;60.30
50758;DHT22;36732;47.980;11.652;2022-09-03T17:27:18;21.60;60.00
50758;DHT22;36732;47.980;11.652;2022-09-03T17:33:04;21.50;60.20
50758;DHT22;36732;47.980;11.652;2022-09-03T17:42:03;21.50;59.60
50758;DHT22;36732;47.980;11.652;2022-09-03T17:47:28;21.40;59.80
50758;DHT22;36732;47.980;11.652;2022-09-03T17:50:20;21.40;59.50
50758;DHT22;36732;47.980;11.652;2022-09-03T17:52:56;21.30;60.00
50758;DHT22;36732;47.980;11.652;2022-09-03T17:55:31;21.30;59.50
50758;DHT22;36732;47.980;11.652;2022-09-03T17:58:27;21.20;59.50
50758;DHT22;36732;47.980;11.652;2022-09-03T18:03:54;21.20;59.80
50758;DHT22;36732;47.980;11.652;2022-09-03T18:06:45;21.10;59.70
50758;DHT22;36732;47.980;11.652;2022-09-03T18:09:31;21.10;59.80
50758;DHT22;36732;47.980;11.652;2022-09-03T18:15:08;21.00;59.80
50758;DHT22;36732;47.980;11.652;2022-09-03T18:20:31;21.00;59.30
50758;DHT22;36732;47.980;11.652;2022-09-03T18:23:51;20.90;59.30
50758;DHT22;36732;47.980;11.652;2022-09-03T18:26:45;20.90;59.40
50758;DHT22;36732;47.980;11.652;2022-09-03T18:29:48;20.90;59.40
50758;DHT22;36732;47.980;11.652;2022-09-03T18:32:33;20.80;59.20
50758;DHT22;36732;47.980;11.652;2022-09-03T18:35:17;20.80;59.20
50758;DHT22;36732;47.980;11.652;2022-09-03T18:38:03;20.70;59.40
50758;DHT22;36732;47.980;11.652;2022-09-03T18:44:28;20.60;59.90
50758;DHT22;36732;47.980;11.652;2022-09-03T18:47:39;20.60;59.90
50758;DHT22;36732;47.980;11.652;2022-09-03T18:51:11;20.60;59.90
50758;DHT22;36732;47.980;11.652;2022-09-03T18:57:18;20.50;59.70
50758;DHT22;36732;47.980;11.652;2022-09-03T19:00:13;20.50;59.60
50758;DHT22;36732;47.980;11.652;2022-09-03T19:03:54;20.40;59.60
50758;DHT22;36732;47.980;11.652;2022-09-03T19:07:07;20.40;59.70
50758;DHT22;36732;47.980;11.652;2022-09-03T19:10:09;20.40;59.70
50758;DHT22;36732;47.980;11.652;2022-09-03T19:13:31;20.40;59.80
50758;DHT22;36732;47.980;11.652;2022-09-03T19:16:52;20.30;59.80
50758;DHT22;36732;47.980;11.652;2022-09-03T19:20:30;20.30;59.90
50758;DHT22;36732;47.980;11.652;2022-09-03T19:23:13;20.20;59.80
50758;DHT22;36732;47.980;11.652;2022-09-03T19:26:07;20.20;59.60
50758;DHT22;36732;47.980;11.652;2022-09-03T19:29:18;20.10;59.60
50758;DHT22;36732;47.980;11.652;2022-09-03T19:32:18;20.10;59.60
50758;DHT22;36732;47.980;11.652;2022-09-03T19:41:29;20.10;59.70
50758;DHT22;36732;47.980;11.652;2022-09-03T19:51:17;19.90;59.70
50758;DHT22;36732;47.980;11.652;2022-09-03T19:54:13;19.90;59.60
50758;DHT22;36732;47.980;11.652;2022-09-03T19:56:58;19.90;59.60
50758;DHT22;36732;47.980;11.652;2022-09-03T19:59:44;19.90;59.60
50758;DHT22;36732;47.980;11.652;2022-09-03T20:02:31;19.80;59.70
50758;DHT22;36732;47.980;11.652;2022-09-03T20:05:19;19.80;59.80
50758;DHT22;36732;47.980;11.652;2022-09-03T20:08:05;19.80;60.00
50758;DHT22;36732;47.980;11.652;2022-09-03T20:10:52;19.80;60.00
50758;DHT22;36732;47.980;11.652;2022-09-03T20:13:20;19.70;60.00
50758;DHT22;36732;47.980;11.652;2022-09-03T20:21:14;19.60;60.30
50758;DHT22;36732;47.980;11.652;2022-09-03T20:23:51;19.70;60.10
50758;DHT22;36732;47.980;11.652;2022-09-03T20:29:33;19.60;60.10
50758;DHT22;36732;47.980;11.652;2022-09-03T20:32:18;19.60;59.80
50758;DHT22;36732;47.980;11.652;2022-09-03T20:38:25;19.60;60.00
50758;DHT22;36732;47.980;11.652;2022-09-03T20:53:16;19.50;59.90
50758;DHT22;36732;47.980;11.652;2022-09-03T20:55:50;19.50;59.90
50758;DHT22;36732;47.980;11.652;2022-09-03T21:01:12;19.40;60.00
50758;DHT22;36732;47.980;11.652;2022-09-03T21:03:50;19.40;60.20
50758;DHT22;36732;47.980;11.652;2022-09-03T21:06:32;19.40;60.20
50758;DHT22;36732;47.980;11.652;2022-09-03T21:14:41;19.40;60.70
50758;DHT22;36732;47.980;11.652;2022-09-03T21:31:34;19.30;60.90